Bentonville, AR

12:33 AM CDT on April 21, 2015 (GMT -0500)
Bentonville (Denali Park) | | Change Station
CLOSE
Current Station
Personal Weather Station
Location: Bentonville, AR
Elevation: 1266 ft
Nearby Weather Stations

Elev 1266 ft 36.37 °N, 94.23 °W | Updated 33 seconds ago

Clear
Clear
44.4 °F
Feels Like 44 °F
N
0.0
Wind Variable Wind from SSW
Gusts 1.1 mph

Today
High -- | Low -- °F
--% Chance of Precip.
Yesterday
High -- | Low -- °F
Precip. -- in
6:35 AM 7:56 PM
Waxing Crescent, 8% visible
Pressure 29.97 in
Visibility 10.0 miles
Clouds Clear
Windchill 44 °F
Dew Point 37 °F
Humidity 74%
Rainfall 0.00 in
Snow Depth Not available.
UV 0 out of 12
Pollen 10.70 out of 12
Air Quality Not available.
Flu Activity Sporadic
METAR KVBT 210515Z AUTO 00000KT 10SM CLR 07/01 A2997 RMK AO1

More Conditions Fewer Conditions

Pressure 29.97 in
Visibility 10.0 miles
Clouds Clear
Windchill 44 °F
Dew Point 37 °F
Humidity 74%
Rainfall 0.00 in
Snow Depth Not available.
UV 0 out of 12
Pollen 10.70 out of 12
Air Quality Not available.
Flu Activity Sporadic
METAR KVBT 210515Z AUTO 00000KT 10SM CLR 07/01 A2997 RMK AO1

More Conditions Fewer Conditions

10-Day Weather Forecast

Almanac

Astronomy

Apr. 21, 2015 Rise Set
Actual Time
Civil Twilight
Nautical Twilight
Astronomical Twilight
Moon
Length of Visible Light
Length of Day
Tomorrow will be .
, % of the Moon is Illuminated

Today's Extremes

State Highs State Lows

Community

WunderPhotos

Upload Photos

1,815,316 photos uploaded!

WunderBlogs® & News

Nearby

Air Quality

  Air Quality AQ Index Pollutant
Not available.

Snow Depth

Station Depth Elevation

Earthquake Activity

City Distance Mag. Time & Date
Minimum magnitude displayed is 2.5.

Coastal Water Temperatures

Place Temperature

Stations

Nearby Weather Stations

Station Location Temp. Windchill Dew Point Humidity Wind Precip. Elev Updated Type